Time;durP1;ratioP1;P1;durP2;ratioP2;P2;SDS_P1;SDS_P2;PMS_P1;PMS_P2;Temp;Humidity;BMP_temperature;BMP_pressure;BME280_temperature;BME280_humidity;BME280_pressure;Samples;Min_cycle;Max_cycle;Signal;HPM_P1;HPM_P2
2022/09/06 00:01:09;;;;;;;4.50;2.13;;;20.70;73.40;;;;;;5029290;28;20033;-92
2022/09/06 00:03:35;;;;;;;7.60;2.78;;;20.70;73.40;;;;;;5039154;28;20022;-92
2022/09/06 00:06:06;;;;;;;5.40;2.50;;;20.80;73.30;;;;;;5026132;28;20042;-93
2022/09/06 00:08:32;;;;;;;6.20;2.53;;;20.80;73.00;;;;;;5041732;28;20021;-93
2022/09/06 00:10:57;;;;;;;5.50;2.97;;;20.80;72.90;;;;;;5042957;28;20025;-92
2022/09/06 00:13:23;;;;;;;7.32;2.90;;;20.80;72.60;;;;;;5027892;28;20032;-93
2022/09/06 00:15:49;;;;;;;5.95;2.92;;;20.80;73.20;;;;;;5022802;28;20029;-91
2022/09/06 00:18:14;;;;;;;6.00;2.40;;;20.70;73.50;;;;;;5058835;28;20053;-93
2022/09/06 00:20:40;;;;;;;4.50;2.67;;;20.80;73.60;;;;;;5022900;28;20029;-93
2022/09/06 00:23:06;;;;;;;5.68;2.63;;;20.70;73.70;;;;;;5027309;28;20052;-93
2022/09/06 00:25:32;;;;;;;5.55;2.60;;;20.80;73.50;;;;;;5042616;28;20032;-92
2022/09/06 00:28:00;;;;;;;5.93;2.72;;;20.60;73.90;;;;;;5041947;28;20033;-92
2022/09/06 00:30:28;;;;;;;4.90;2.70;;;20.60;73.90;;;;;;5045408;28;20025;-93
2022/09/06 00:32:55;;;;;;;4.82;2.40;;;20.70;73.50;;;;;;5042310;28;20028;-93
2022/09/06 00:35:23;;;;;;;4.60;2.55;;;20.70;73.40;;;;;;5041836;28;20068;-93
2022/09/06 00:37:49;;;;;;;5.50;2.58;;;20.80;73.20;;;;;;5039173;28;20064;-94
2022/09/06 00:40:15;;;;;;;6.13;2.72;;;20.80;73.20;;;;;;5032009;28;20093;-93
2022/09/06 00:42:41;;;;;;;4.28;2.53;;;20.70;73.80;;;;;;5022307;28;20071;-93
2022/09/06 00:45:09;;;;;;;6.93;2.92;;;20.70;73.70;;;;;;5043420;28;20026;-92
2022/09/06 00:47:37;;;;;;;7.70;2.83;;;20.70;73.70;;;;;;5025836;28;20041;-93
2022/09/06 00:50:04;;;;;;;4.05;2.33;;;20.70;73.80;;;;;;5022177;28;20025;-92
2022/09/06 00:52:31;;;;;;;6.03;2.88;;;20.70;74.00;;;;;;5025362;28;20032;-93
2022/09/06 00:54:58;;;;;;;6.95;2.90;;;20.70;73.60;;;;;;5031648;28;20563;-92
2022/09/06 00:57:26;;;;;;;6.25;2.90;;;20.80;73.30;;;;;;5025394;28;20030;-93
2022/09/06 00:59:53;;;;;;;6.13;2.10;;;20.70;73.50;;;;;;5037038;28;20022;-92
2022/09/06 01:02:26;;;;;;;5.45;2.85;;;20.50;74.10;;;;;;5022444;28;20064;-93
2022/09/06 01:04:52;;;;;;;5.50;2.42;;;20.50;74.40;;;;;;5024585;28;20053;-92
2022/09/06 01:07:40;;;;;;;9.02;2.67;;;20.50;74.40;;;;;;5022012;28;20040;-92
2022/09/06 01:10:30;;;;;;;4.97;2.33;;;20.50;74.30;;;;;;5030329;28;20032;-92
2022/09/06 01:13:11;;;;;;;;;;;20.30;74.60;;;;;;5042093;28;20049;-92
2022/09/06 01:15:55;;;;;;;5.55;2.40;;;20.40;74.30;;;;;;5044720;28;19904;-92
2022/09/06 01:18:42;;;;;;;5.82;2.58;;;20.50;73.80;;;;;;5059333;28;20028;-90
2022/09/06 01:21:27;;;;;;;6.28;2.40;;;20.40;74.00;;;;;;5045062;28;20083;-92
2022/09/06 01:24:10;;;;;;;6.32;2.35;;;20.40;73.70;;;;;;5041182;28;20037;-92
2022/09/06 01:27:08;;;;;;;6.90;2.45;;;20.40;73.90;;;;;;5062541;28;20485;-92
2022/09/06 01:29:48;;;;;;;5.32;2.20;;;20.40;73.60;;;;;;5041467;28;20048;-93
2022/09/06 01:32:19;;;;;;;7.13;2.40;;;20.30;74.00;;;;;;5027769;28;20806;-93
2022/09/06 01:34:51;;;;;;;5.63;2.55;;;20.30;74.10;;;;;;5037829;28;20029;-92
2022/09/06 01:37:20;;;;;;;5.63;2.75;;;20.30;73.90;;;;;;5025210;28;20022;-93
2022/09/06 01:39:46;;;;;;;5.30;2.60;;;20.30;74.20;;;;;;5021453;28;20033;-93
2022/09/06 01:42:35;;;;;;;4.65;2.58;;;20.30;74.40;;;;;;5021962;28;20113;-94
2022/09/06 01:45:11;;;;;;;5.68;2.42;;;20.20;74.60;;;;;;5008536;28;20678;-93
2022/09/06 01:47:37;;;;;;;7.15;2.28;;;20.10;74.70;;;;;;5020987;28;20342;-93
2022/09/06 01:50:25;;;;;;;6.82;2.47;;;20.10;75.00;;;;;;5025077;28;20052;-91
2022/09/06 01:53:08;;;;;;;6.40;2.30;;;19.90;75.30;;;;;;5035382;28;20024;-93
2022/09/06 01:55:49;;;;;;;5.63;2.40;;;20.00;75.60;;;;;;5044756;28;20055;-92
2022/09/06 01:58:28;;;;;;;8.10;2.53;;;19.90;75.70;;;;;;5034297;28;20028;-92
2022/09/06 02:01:08;;;;;;;6.40;2.60;;;19.90;75.50;;;;;;5023906;28;20034;-94
2022/09/06 02:03:48;;;;;;;10.00;2.38;;;19.90;75.70;;;;;;5037393;28;20030;-92
2022/09/06 02:06:20;;;;;;;5.70;2.00;;;19.80;76.10;;;;;;5041282;28;20037;-93
2022/09/06 02:08:52;;;;;;;7.50;2.60;;;19.80;76.20;;;;;;5037355;28;20032;-93
2022/09/06 02:11:17;;;;;;;7.63;2.50;;;19.80;75.80;;;;;;5029123;28;20018;-92
2022/09/06 02:14:05;;;;;;;5.43;2.45;;;19.80;75.80;;;;;;5022638;28;20037;-92
2022/09/06 02:16:39;;;;;;;10.15;3.08;;;19.80;75.90;;;;;;5021397;28;20056;-92
2022/09/06 02:19:15;;;;;;;5.97;2.72;;;19.80;75.90;;;;;;5021668;28;20179;-91
2022/09/06 02:21:44;;;;;;;3.83;2.20;;;19.80;75.80;;;;;;5020281;28;20049;-92
2022/09/06 02:24:17;;;;;;;7.03;2.13;;;19.90;75.50;;;;;;5023890;28;20033;-91
2022/09/06 02:26:43;;;;;;;6.97;2.50;;;19.80;75.40;;;;;;5020219;28;20037;-92
2022/09/06 02:29:09;;;;;;;6.30;2.30;;;19.90;75.00;;;;;;5036440;28;20033;-93
2022/09/06 02:31:43;;;;;;;9.45;2.33;;;19.90;75.00;;;;;;5037480;28;20029;-93
2022/09/06 02:34:13;;;;;;;3.67;1.88;;;19.80;75.40;;;;;;5040478;28;20044;-92
2022/09/06 02:36:38;;;;;;;4.78;2.03;;;19.80;75.60;;;;;;5025776;28;20040;-94
2022/09/06 02:39:15;;;;;;;3.60;1.75;;;19.70;75.60;;;;;;5020511;28;20025;-92
2022/09/06 02:41:45;;;;;;;9.07;3.00;;;19.70;75.80;;;;;;5040894;28;20040;-94
2022/09/06 02:44:10;;;;;;;7.10;2.20;;;19.80;75.60;;;;;;5039613;28;20117;-92
2022/09/06 02:46:36;;;;;;;10.63;2.33;;;19.70;75.80;;;;;;5043545;28;20057;-92
2022/09/06 02:49:02;;;;;;;8.13;1.88;;;19.60;76.10;;;;;;5039869;28;20025;-91
2022/09/06 02:51:28;;;;;;;8.27;2.28;;;19.60;76.30;;;;;;5044075;28;20049;-92
2022/09/06 02:53:54;;;;;;;9.00;2.58;;;19.50;76.30;;;;;;5040266;28;20383;-93
2022/09/06 02:56:22;;;;;;;6.90;1.85;;;19.50;76.50;;;;;;5041314;28;20079;-93
2022/09/06 02:58:48;;;;;;;7.10;2.63;;;19.50;76.40;;;;;;5032731;28;20481;-92
2022/09/06 03:01:14;;;;;;;14.35;2.78;;;19.40;77.00;;;;;;5037172;28;20060;-93
2022/09/06 03:03:40;;;;;;;6.97;2.30;;;19.40;76.70;;;;;;5040037;28;20539;-92
2022/09/06 03:06:06;;;;;;;9.35;1.77;;;19.40;76.80;;;;;;5036571;28;20044;-93
2022/09/06 03:08:33;;;;;;;7.57;2.30;;;19.40;76.90;;;;;;5023404;28;20478;-91
2022/09/06 03:10:59;;;;;;;7.28;1.90;;;19.50;76.90;;;;;;5020217;28;20022;-92
2022/09/06 03:13:37;;;;;;;5.43;1.92;;;19.50;76.80;;;;;;5025970;28;20021;-95
2022/09/06 03:16:03;;;;;;;6.35;2.08;;;19.50;76.70;;;;;;5039117;28;20036;-91
2022/09/06 03:18:30;;;;;;;6.45;2.08;;;19.50;76.60;;;;;;5037465;28;20057;-93
2022/09/06 03:21:01;;;;;;;6.85;1.95;;;19.40;76.90;;;;;;5039282;28;20384;-91
2022/09/06 03:23:28;;;;;;;6.78;1.83;;;19.50;76.70;;;;;;5019766;28;20105;-95
2022/09/06 03:25:54;;;;;;;5.78;2.20;;;19.40;76.80;;;;;;5035746;28;20028;-91
2022/09/06 03:28:21;;;;;;;7.47;1.88;;;19.50;76.80;;;;;;5036119;28;20485;-92
2022/09/06 03:30:48;;;;;;;9.68;2.42;;;19.50;76.60;;;;;;5041879;28;20025;-92
2022/09/06 03:33:14;;;;;;;6.65;1.58;;;19.50;76.50;;;;;;5040629;28;20021;-93
2022/09/06 03:35:53;;;;;;;7.13;2.00;;;19.50;76.70;;;;;;5024516;28;20100;-93
2022/09/06 03:38:19;;;;;;;5.38;2.30;;;19.40;76.80;;;;;;5040202;28;20047;-91
2022/09/06 03:40:46;;;;;;;8.15;1.70;;;19.40;76.80;;;;;;5036841;28;20061;-92
2022/09/06 03:43:11;;;;;;;7.30;2.25;;;19.40;77.00;;;;;;5039771;28;20029;-93
2022/09/06 03:45:37;;;;;;;6.45;2.28;;;19.50;76.90;;;;;;5020020;28;20029;-91
2022/09/06 03:48:06;;;;;;;8.23;2.08;;;19.60;76.50;;;;;;5023970;28;20117;-93
2022/09/06 03:50:31;;;;;;;10.27;2.00;;;19.70;76.40;;;;;;5024712;28;20032;-93
2022/09/06 03:52:57;;;;;;;7.97;2.17;;;19.60;76.40;;;;;;5039792;28;20029;-91
2022/09/06 03:55:23;;;;;;;9.10;2.22;;;19.60;76.60;;;;;;5043436;28;20029;-93
2022/09/06 03:57:48;;;;;;;6.65;1.55;;;19.70;76.60;;;;;;5039207;28;20036;-92
2022/09/06 04:00:14;;;;;;;6.00;1.98;;;19.70;76.60;;;;;;5041660;28;20033;-94
2022/09/06 04:02:40;;;;;;;9.10;1.98;;;19.70;76.50;;;;;;5039233;28;20078;-90
2022/09/06 04:05:06;;;;;;;7.38;1.83;;;19.70;76.60;;;;;;5060517;28;20088;-91
2022/09/06 04:07:32;;;;;;;7.93;1.85;;;19.70;76.60;;;;;;5025190;28;20033;-91
2022/09/06 04:09:58;;;;;;;10.35;2.28;;;19.70;76.80;;;;;;5023073;28;20036;-90
2022/09/06 04:12:23;;;;;;;11.85;2.88;;;19.70;76.90;;;;;;5026908;28;20018;-90
2022/09/06 04:14:49;;;;;;;7.55;2.35;;;19.70;77.20;;;;;;5034578;28;20049;-91
2022/09/06 04:17:15;;;;;;;7.75;2.08;;;19.70;77.40;;;;;;5046650;28;20064;-90
2022/09/06 04:19:40;;;;;;;7.63;2.30;;;19.80;77.20;;;;;;5042131;28;20059;-90
2022/09/06 04:22:06;;;;;;;4.18;1.48;;;19.80;77.10;;;;;;5039827;28;20053;-85
2022/09/06 04:24:32;;;;;;;12.15;2.70;;;19.80;77.20;;;;;;5034128;28;20046;-88
2022/09/06 04:26:58;;;;;;;7.85;2.80;;;19.80;77.00;;;;;;5026914;28;20034;-87
2022/09/06 04:29:24;;;;;;;4.57;2.10;;;19.80;77.10;;;;;;5040770;28;20030;-84
2022/09/06 04:31:49;;;;;;;7.68;2.80;;;19.80;77.00;;;;;;5021073;28;20800;-87
2022/09/06 04:34:15;;;;;;;12.32;2.50;;;19.80;77.10;;;;;;5034644;28;20033;-85
2022/09/06 04:36:41;;;;;;;9.05;2.13;;;19.80;77.00;;;;;;5032440;28;20041;-83
2022/09/06 04:39:09;;;;;;;11.10;2.47;;;19.90;76.80;;;;;;5017995;28;20037;-81
2022/09/06 04:41:35;;;;;;;10.82;2.05;;;19.90;76.90;;;;;;5016806;28;20109;-81
2022/09/06 04:44:00;;;;;;;7.43;1.98;;;19.90;77.10;;;;;;5020164;28;20065;-84
2022/09/06 04:46:28;;;;;;;8.52;1.98;;;19.80;77.50;;;;;;5031743;28;20472;-84
2022/09/06 04:48:55;;;;;;;13.30;2.25;;;19.80;77.90;;;;;;5026616;28;20064;-85
2022/09/06 04:51:22;;;;;;;4.78;2.08;;;19.80;77.80;;;;;;5036460;28;20056;-83
2022/09/06 04:53:48;;;;;;;8.73;2.28;;;19.80;78.10;;;;;;5036334;28;20025;-86
2022/09/06 04:56:29;;;;;;;9.00;2.08;;;19.80;78.30;;;;;;5021957;28;20796;-89
2022/09/06 04:58:55;;;;;;;7.38;2.33;;;19.80;78.10;;;;;;5032634;28;20033;-90
2022/09/06 05:01:21;;;;;;;7.90;1.73;;;19.80;78.00;;;;;;5036233;28;20504;-88
2022/09/06 05:03:47;;;;;;;11.07;2.67;;;19.90;77.80;;;;;;5036537;28;20103;-86
2022/09/06 05:06:20;;;;;;;12.63;2.42;;;19.90;77.70;;;;;;5035891;28;20104;-87
2022/09/06 05:08:45;;;;;;;6.05;1.88;;;19.90;77.90;;;;;;5040843;28;20049;-86
2022/09/06 05:11:12;;;;;;;6.30;1.60;;;19.90;77.70;;;;;;5034644;28;20493;-86
2022/09/06 05:13:38;;;;;;;7.10;2.40;;;19.90;77.80;;;;;;5036552;28;20026;-88
2022/09/06 05:16:06;;;;;;;13.95;2.25;;;19.80;78.20;;;;;;5055324;28;20025;-87
2022/09/06 05:18:55;;;;;;;8.15;2.45;;;19.80;78.30;;;;;;5056563;28;20017;-83
2022/09/06 05:21:21;;;;;;;9.00;1.80;;;19.90;78.20;;;;;;5023920;28;20033;-89
2022/09/06 05:23:47;;;;;;;9.35;1.90;;;19.90;78.10;;;;;;5036672;28;20560;-89
2022/09/06 05:26:13;;;;;;;12.73;2.72;;;19.80;78.20;;;;;;5039724;28;20056;-89
2022/09/06 05:28:38;;;;;;;12.68;2.10;;;19.80;78.60;;;;;;5037116;28;20021;-88
2022/09/06 05:31:23;;;;;;;9.90;2.30;;;19.80;78.50;;;;;;5021889;28;20030;-91
2022/09/06 05:33:52;;;;;;;9.73;1.70;;;19.80;78.30;;;;;;5018144;28;20442;-91
2022/09/06 05:36:17;;;;;;;6.47;1.65;;;19.90;78.10;;;;;;5020286;28;20036;-91
2022/09/06 05:38:43;;;;;;;11.95;2.42;;;19.90;77.90;;;;;;5022086;28;20026;-91
2022/09/06 05:41:09;;;;;;;11.57;2.03;;;19.90;77.90;;;;;;5017022;28;20083;-90
2022/09/06 05:43:34;;;;;;;10.73;2.83;;;19.90;77.60;;;;;;5020601;28;20026;-89
2022/09/06 05:46:00;;;;;;;16.52;2.75;;;19.80;77.30;;;;;;5017362;28;20030;-93
2022/09/06 05:48:26;;;;;;;6.45;1.35;;;19.90;77.40;;;;;;5021481;28;20025;-89
2022/09/06 05:51:07;;;;;;;10.65;1.83;;;19.80;77.60;;;;;;5017246;28;20029;-89
2022/09/06 05:53:40;;;;;;;10.07;2.05;;;19.80;77.40;;;;;;5016831;28;20564;-90
2022/09/06 05:56:07;;;;;;;9.75;2.15;;;19.90;77.60;;;;;;5016990;28;20026;-91
2022/09/06 05:58:33;;;;;;;4.97;1.50;;;19.90;77.40;;;;;;5024626;28;20030;-90
2022/09/06 06:01:18;;;;;;;6.75;1.55;;;19.90;77.20;;;;;;5033410;28;20163;-89
2022/09/06 06:03:55;;;;;;;8.25;1.75;;;20.00;77.00;;;;;;5033398;28;20026;-91
2022/09/06 06:06:22;;;;;;;6.63;1.85;;;19.90;77.00;;;;;;5033352;28;20083;-91
2022/09/06 06:08:48;;;;;;;6.78;2.20;;;19.90;77.20;;;;;;5032645;28;20152;-90
2022/09/06 06:11:14;;;;;;;10.57;2.20;;;19.90;77.40;;;;;;5027225;28;20179;-92
2022/09/06 06:13:40;;;;;;;11.00;2.20;;;19.80;77.60;;;;;;5032894;28;20048;-91
2022/09/06 06:16:11;;;;;;;8.60;1.85;;;19.80;77.80;;;;;;5016696;28;20033;-92
2022/09/06 06:18:37;;;;;;;9.82;1.88;;;19.80;77.70;;;;;;5016653;28;20080;-90
2022/09/06 06:21:24;;;;;;;5.28;1.48;;;19.90;77.60;;;;;;5025529;28;20481;-91
2022/09/06 06:23:54;;;;;;;8.80;1.73;;;19.80;77.60;;;;;;5037210;28;20028;-92
2022/09/06 06:26:20;;;;;;;12.00;1.95;;;19.90;77.60;;;;;;5019584;28;20440;-91
2022/09/06 06:28:46;;;;;;;7.60;1.20;;;19.90;77.60;;;;;;5018761;28;20516;-91
2022/09/06 06:31:12;;;;;;;6.85;1.67;;;20.00;77.50;;;;;;5037343;28;20048;-90
2022/09/06 06:33:38;;;;;;;7.80;2.20;;;19.90;77.70;;;;;;5036055;28;20014;-91
2022/09/06 06:36:17;;;;;;;10.70;2.15;;;20.00;77.50;;;;;;5039555;28;20097;-91
2022/09/06 06:38:44;;;;;;;8.57;1.70;;;20.00;77.40;;;;;;5056806;28;20111;-91
2022/09/06 06:41:12;;;;;;;4.78;1.55;;;20.00;77.70;;;;;;5039269;28;20021;-90
2022/09/06 06:43:38;;;;;;;11.85;1.90;;;20.00;77.90;;;;;;5039514;28;20128;-92
2022/09/06 06:46:15;;;;;;;8.73;1.77;;;20.10;77.70;;;;;;5039609;28;20110;-91
2022/09/06 06:48:43;;;;;;;10.77;2.13;;;20.20;77.40;;;;;;5020180;28;20102;-90
2022/09/06 06:51:13;;;;;;;8.48;1.67;;;20.50;77.00;;;;;;5027668;28;20058;-91
2022/09/06 06:53:39;;;;;;;7.65;1.70;;;20.50;76.50;;;;;;5019515;28;20112;-92
2022/09/06 06:56:16;;;;;;;9.55;1.83;;;20.60;76.60;;;;;;5037954;28;20135;-92
2022/09/06 06:58:43;;;;;;;11.40;2.17;;;20.80;76.00;;;;;;5039914;28;20120;-90
2022/09/06 07:01:09;;;;;;;7.90;1.60;;;20.60;75.50;;;;;;5039369;28;20021;-92
2022/09/06 07:03:35;;;;;;;9.00;1.65;;;20.70;75.80;;;;;;5039023;28;20496;-92
2022/09/06 07:06:02;;;;;;;9.40;2.10;;;20.70;75.70;;;;;;5039295;28;20098;-91
2022/09/06 07:08:28;;;;;;;6.55;1.52;;;20.60;75.70;;;;;;5039545;28;20101;-92
2022/09/06 07:10:53;;;;;;;6.07;1.38;;;20.70;75.80;;;;;;5039503;28;20503;-91
2022/09/06 07:13:19;;;;;;;8.57;1.63;;;20.80;75.40;;;;;;5037888;28;20025;-90
2022/09/06 07:15:45;;;;;;;8.35;1.60;;;21.00;74.90;;;;;;5039247;28;20069;-91
2022/09/06 07:18:10;;;;;;;9.10;1.42;;;21.10;74.60;;;;;;5039399;28;20033;-92
2022/09/06 07:20:36;;;;;;;7.15;1.60;;;21.10;73.10;;;;;;5039717;28;20043;-92
2022/09/06 07:23:04;;;;;;;5.30;1.33;;;21.20;73.40;;;;;;5020063;28;20053;-92
2022/09/06 07:25:31;;;;;;;5.20;1.17;;;21.20;72.90;;;;;;5019743;28;20052;-92
2022/09/06 07:28:05;;;;;;;7.43;1.73;;;21.20;72.50;;;;;;5019397;28;20025;-93
2022/09/06 07:30:32;;;;;;;7.75;1.50;;;21.30;72.50;;;;;;5019573;28;20045;-92
2022/09/06 07:32:59;;;;;;;6.15;1.52;;;21.60;72.10;;;;;;5021664;28;20137;-92
2022/09/06 07:35:25;;;;;;;3.50;0.95;;;21.90;70.90;;;;;;5039465;28;20408;-92
2022/09/06 07:37:56;;;;;;;6.53;1.25;;;22.30;69.10;;;;;;5039337;28;20051;-93
2022/09/06 07:40:23;;;;;;;7.88;1.38;;;22.30;68.40;;;;;;5041095;28;20036;-92
2022/09/06 07:42:49;;;;;;;6.28;0.90;;;21.80;69.80;;;;;;5061136;28;20066;-93
2022/09/06 07:45:14;;;;;;;7.25;1.23;;;21.50;70.70;;;;;;5043189;28;20067;-92
2022/09/06 07:47:40;;;;;;;7.18;1.80;;;21.30;71.40;;;;;;5043344;28;20032;-91
2022/09/06 07:50:06;;;;;;;5.30;1.20;;;21.10;72.00;;;;;;5042692;28;20456;-93
2022/09/06 07:52:32;;;;;;;8.70;1.52;;;21.10;72.60;;;;;;5043032;28;20028;-93
2022/09/06 07:54:58;;;;;;;7.55;1.75;;;21.00;72.50;;;;;;5042888;28;20029;-93
2022/09/06 07:57:24;;;;;;;5.82;1.20;;;20.90;72.80;;;;;;5028171;28;20029;-92
2022/09/06 07:59:50;;;;;;;7.75;2.30;;;20.80;73.10;;;;;;5023087;28;20137;-92
2022/09/06 08:02:16;;;;;;;5.60;1.17;;;20.80;73.30;;;;;;5023209;28;20070;-92
2022/09/06 08:04:43;;;;;;;5.10;1.55;;;20.80;73.50;;;;;;5038530;28;20033;-93
2022/09/06 08:07:09;;;;;;;9.07;1.45;;;20.70;73.70;;;;;;5022931;28;20030;-91
2022/09/06 08:09:35;;;;;;;7.97;1.77;;;20.60;74.50;;;;;;5032036;28;20025;-91
2022/09/06 08:12:05;;;;;;;8.90;1.40;;;20.70;74.60;;;;;;5039401;28;20029;-91
2022/09/06 08:14:32;;;;;;;11.18;1.90;;;20.70;74.70;;;;;;5042527;28;20075;-92
2022/09/06 08:16:57;;;;;;;6.47;1.33;;;20.70;74.60;;;;;;5042648;28;20097;-90
2022/09/06 08:19:24;;;;;;;6.15;1.70;;;20.70;74.90;;;;;;5042604;28;20456;-93
2022/09/06 08:21:52;;;;;;;9.95;1.52;;;20.50;75.40;;;;;;5038731;28;20049;-92
2022/09/06 08:24:18;;;;;;;9.88;1.83;;;20.50;75.50;;;;;;5039425;28;20044;-92
2022/09/06 08:26:44;;;;;;;7.40;1.30;;;20.50;75.90;;;;;;5038815;28;20021;-91
2022/09/06 08:29:11;;;;;;;8.27;1.60;;;20.50;76.20;;;;;;5039282;28;20026;-93
2022/09/06 08:31:42;;;;;;;11.13;2.03;;;20.50;76.40;;;;;;5038915;28;20021;-92
2022/09/06 08:34:08;;;;;;;6.38;1.35;;;20.50;76.30;;;;;;5039142;28;20698;-91
2022/09/06 08:36:34;;;;;;;6.50;1.52;;;20.60;76.80;;;;;;5020906;28;20022;-90
2022/09/06 08:39:03;;;;;;;11.40;2.42;;;20.60;77.30;;;;;;5019942;28;20034;-91
2022/09/06 08:41:54;;;;;;;10.95;1.85;;;20.60;77.70;;;;;;5018619;28;20034;-91
2022/09/06 08:44:19;;;;;;;11.88;2.60;;;20.50;78.50;;;;;;5030617;28;20108;-91
2022/09/06 08:47:10;;;;;;;7.75;2.35;;;20.60;78.80;;;;;;5037690;28;20052;-91
2022/09/06 08:49:39;;;;;;;13.73;2.63;;;20.60;78.90;;;;;;5039023;28;20029;-89
2022/09/06 08:52:43;;;;;;;12.13;1.90;;;20.80;78.90;;;;;;5036773;28;20560;-91
2022/09/06 08:55:20;;;;;;;15.40;2.47;;;20.80;79.10;;;;;;5018975;28;20116;-90
2022/09/06 08:58:05;;;;;;;10.18;2.40;;;20.80;79.60;;;;;;5019189;28;20079;-91
2022/09/06 09:00:33;;;;;;;8.55;2.10;;;20.80;79.90;;;;;;5035469;28;20061;-89
2022/09/06 09:03:17;;;;;;;9.73;2.20;;;20.80;79.90;;;;;;5037483;28;20030;-89
2022/09/06 09:05:47;;;;;;;11.20;2.30;;;20.80;80.40;;;;;;5038697;28;20032;-89
2022/09/06 09:08:26;;;;;;;12.27;2.80;;;20.60;81.40;;;;;;5020667;28;20030;-91
2022/09/06 09:11:07;;;;;;;7.57;2.50;;;20.50;81.50;;;;;;5024476;28;20125;-93
2022/09/06 09:13:38;;;;;;;14.57;2.47;;;20.50;81.30;;;;;;5018257;28;20567;-91
2022/09/06 09:16:04;;;;;;;13.75;2.28;;;20.60;81.50;;;;;;5018412;28;20030;-90
2022/09/06 09:18:35;;;;;;;8.50;1.88;;;20.40;81.30;;;;;;5023053;28;20045;-92
2022/09/06 09:21:02;;;;;;;11.10;2.25;;;20.40;82.00;;;;;;5037686;28;20037;-91
2022/09/06 09:23:31;;;;;;;10.15;2.35;;;20.40;82.20;;;;;;5057256;28;20492;-92
2022/09/06 09:26:13;;;;;;;8.32;1.90;;;20.60;82.40;;;;;;5040496;28;20044;-90
2022/09/06 09:29:07;;;;;;;7.15;1.95;;;20.70;81.10;;;;;;5040577;28;20040;-87
2022/09/06 09:31:48;;;;;;;7.80;1.92;;;20.70;80.80;;;;;;5020799;28;20049;-92
2022/09/06 09:34:32;;;;;;;6.13;1.80;;;20.80;80.70;;;;;;5026181;28;20024;-91
2022/09/06 09:37:22;;;;;;;6.25;2.10;;;20.80;80.70;;;;;;5040560;28;20028;-90
2022/09/06 09:39:49;;;;;;;8.68;1.83;;;20.80;80.60;;;;;;5040315;28;20024;-91
2022/09/06 09:42:34;;;;;;;7.85;2.03;;;20.70;80.70;;;;;;5058314;28;20090;-91
2022/09/06 09:45:01;;;;;;;12.85;2.25;;;20.40;81.10;;;;;;5049371;28;20037;-91
2022/09/06 09:47:29;;;;;;;8.70;2.05;;;20.30;81.20;;;;;;5036887;28;20036;-91
2022/09/06 09:49:55;;;;;;;12.77;1.85;;;20.30;81.50;;;;;;5021532;28;20037;-91
2022/09/06 09:52:26;;;;;;;11.57;2.75;;;20.30;81.80;;;;;;5020576;28;20021;-91
2022/09/06 09:54:59;;;;;;;10.90;1.85;;;20.30;81.80;;;;;;5020512;28;20022;-88
2022/09/06 09:57:28;;;;;;;5.75;1.70;;;20.30;82.10;;;;;;5020695;28;20481;-91
2022/09/06 09:59:57;;;;;;;7.25;2.08;;;20.20;82.00;;;;;;5038039;28;20026;-91
2022/09/06 10:02:35;;;;;;;6.07;1.77;;;20.20;81.70;;;;;;5019996;28;20022;-90
2022/09/06 10:05:08;;;;;;;9.98;1.67;;;20.00;81.50;;;;;;5035962;28;20029;-91
2022/09/06 10:07:41;;;;;;;7.82;1.80;;;20.00;82.30;;;;;;5020028;28;20037;-91
2022/09/06 10:10:19;;;;;;;7.75;1.88;;;19.90;82.70;;;;;;5020202;28;20025;-92
2022/09/06 10:12:45;;;;;;;9.05;1.85;;;19.90;82.70;;;;;;5025678;28;20477;-91
2022/09/06 10:15:31;;;;;;;8.40;1.52;;;20.00;82.30;;;;;;5057703;28;20092;-89
2022/09/06 10:17:57;;;;;;;7.65;1.50;;;20.10;82.30;;;;;;5039813;28;20025;-91
2022/09/06 10:20:39;;;;;;;3.85;1.33;;;20.00;82.20;;;;;;5039606;28;20039;-90
2022/09/06 10:23:13;;;;;;;7.55;1.50;;;19.90;81.60;;;;;;5026601;28;20099;-92
2022/09/06 10:25:46;;;;;;;4.63;1.63;;;19.80;81.50;;;;;;5036218;28;20025;-91
2022/09/06 10:28:28;;;;;;;4.45;1.67;;;19.70;82.00;;;;;;5020362;28;20021;-92
2022/09/06 10:31:20;;;;;;;2.40;1.27;;;19.70;81.70;;;;;;5032421;28;20052;-90
2022/09/06 10:34:16;;;;;;;6.32;1.42;;;19.70;82.20;;;;;;5028767;28;20033;-90
2022/09/06 10:36:56;;;;;;;7.68;1.85;;;19.70;81.90;;;;;;5039075;28;20064;-90
2022/09/06 10:39:54;;;;;;;7.70;2.10;;;19.80;82.20;;;;;;5039673;28;20033;-90
2022/09/06 10:42:45;;;;;;;6.45;1.40;;;19.80;82.80;;;;;;5034201;28;20041;-92
2022/09/06 10:45:32;;;;;;;6.97;1.20;;;19.60;82.80;;;;;;5023032;28;20061;-90
2022/09/06 10:48:08;;;;;;;6.72;1.58;;;19.60;83.00;;;;;;5035858;28;20026;-92
2022/09/06 10:51:09;;;;;;;7.40;1.85;;;19.60;83.30;;;;;;5040374;28;20025;-90
2022/09/06 10:54:01;;;;;;;5.95;1.60;;;19.60;83.70;;;;;;5029131;28;20031;-92
2022/09/06 10:56:44;;;;;;;5.80;1.20;;;19.60;83.50;;;;;;5039246;28;20542;-89
2022/09/06 10:59:28;;;;;;;6.45;1.42;;;19.70;83.20;;;;;;5019390;28;20017;-89
2022/09/06 11:02:08;;;;;;;4.15;1.23;;;19.80;83.60;;;;;;5019315;28;20057;-90
2022/09/06 11:04:43;;;;;;;5.68;1.35;;;20.10;83.50;;;;;;5039113;28;20025;-90
2022/09/06 11:07:30;;;;;;;6.80;1.77;;;20.40;83.20;;;;;;5056825;28;20048;-90
2022/09/06 11:10:20;;;;;;;6.35;1.52;;;20.60;82.70;;;;;;5038755;28;20033;-90
2022/09/06 11:12:58;;;;;;;4.50;1.65;;;20.80;81.80;;;;;;5038847;28;20046;-89
2022/09/06 11:15:28;;;;;;;5.85;1.58;;;20.90;82.10;;;;;;5024723;28;20025;-88
2022/09/06 11:17:57;;;;;;;5.40;1.65;;;21.10;81.50;;;;;;5023072;28;20076;-89
2022/09/06 11:20:48;;;;;;;4.38;1.13;;;21.10;80.80;;;;;;5023580;28;20029;-91
2022/09/06 11:23:35;;;;;;;3.17;1.50;;;20.90;80.60;;;;;;5019830;28;20120;-88
2022/09/06 11:26:19;;;;;;;6.30;1.50;;;20.60;81.20;;;;;;5040906;28;20029;-89
2022/09/06 11:28:51;;;;;;;5.22;1.30;;;20.50;82.00;;;;;;5060201;28;20025;-90
2022/09/06 11:31:24;;;;;;;4.85;1.05;;;20.60;82.30;;;;;;5059875;28;20028;-91
2022/09/06 11:34:18;;;;;;;3.72;1.23;;;20.50;81.30;;;;;;5043102;28;20017;-90
2022/09/06 11:36:50;;;;;;;5.45;1.42;;;20.80;82.00;;;;;;5043187;28;20055;-90
2022/09/06 11:39:29;;;;;;;7.80;1.20;;;21.00;81.40;;;;;;5042143;28;20029;-89
2022/09/06 11:41:56;;;;;;;5.22;1.00;;;21.00;80.60;;;;;;5042400;28;20059;-91
2022/09/06 11:45:12;;;;;;;5.30;1.17;;;21.20;81.00;;;;;;5059830;28;20025;-89
2022/09/06 11:47:39;;;;;;;4.68;1.20;;;21.50;80.00;;;;;;5059972;28;20033;-90
2022/09/06 11:50:52;;;;;;;5.43;1.58;;;21.80;80.00;;;;;;5038220;28;20111;-88
2022/09/06 11:53:23;;;;;;;3.72;0.90;;;22.10;80.00;;;;;;4995754;28;20034;-90
2022/09/06 11:56:08;;;;;;;5.28;0.98;;;22.10;78.20;;;;;;5039857;28;20481;-88
2022/09/06 11:59:10;;;;;;;4.43;1.05;;;21.90;79.30;;;;;;5038500;28;20033;-90
2022/09/06 12:01:38;;;;;;;7.45;1.27;;;22.30;79.20;;;;;;5016451;28;20119;-89
2022/09/06 12:04:05;;;;;;;8.98;1.25;;;22.30;78.40;;;;;;5038375;28;20029;-91
2022/09/06 12:06:41;;;;;;;8.02;2.03;;;22.30;78.60;;;;;;5021925;28;20036;-90
2022/09/06 12:09:27;;;;;;;5.38;1.20;;;22.30;78.50;;;;;;5039780;28;20500;-91
2022/09/06 12:11:54;;;;;;;3.65;1.05;;;22.10;77.90;;;;;;5022071;28;20029;-89
2022/09/06 12:14:34;;;;;;;5.95;1.27;;;22.10;78.40;;;;;;5021995;28;20009;-90
2022/09/06 12:17:00;;;;;;;5.03;1.10;;;22.00;77.60;;;;;;5022023;28;20101;-92
2022/09/06 12:19:44;;;;;;;4.18;1.25;;;21.90;77.70;;;;;;5048094;28;20119;-90
2022/09/06 12:22:39;;;;;;;4.57;1.30;;;21.90;77.60;;;;;;5053968;28;20524;-89
2022/09/06 12:25:26;;;;;;;3.70;1.30;;;21.90;77.30;;;;;;5017473;28;20064;-89
2022/09/06 12:27:59;;;;;;;3.92;1.27;;;22.10;77.70;;;;;;5053913;28;20033;-89
2022/09/06 12:30:40;;;;;;;6.97;1.65;;;22.20;76.80;;;;;;5022017;28;20029;-92
2022/09/06 12:33:30;;;;;;;10.88;1.95;;;22.20;76.00;;;;;;5021874;28;20056;-90
2022/09/06 12:36:29;;;;;;;6.90;1.45;;;22.10;75.60;;;;;;5034651;28;20033;-89
2022/09/06 12:39:08;;;;;;;5.55;1.40;;;21.90;75.40;;;;;;5021751;28;20017;-91
2022/09/06 12:41:40;;;;;;;5.03;1.30;;;21.90;76.00;;;;;;5021448;28;20025;-91
2022/09/06 12:44:06;;;;;;;4.90;1.08;;;22.00;75.80;;;;;;5021708;28;20457;-91
2022/09/06 12:46:33;;;;;;;6.05;1.35;;;21.80;75.40;;;;;;5021153;28;20033;-90
2022/09/06 12:49:14;;;;;;;6.63;2.28;;;22.00;75.10;;;;;;5032610;28;20031;-89
2022/09/06 12:51:40;;;;;;;8.68;1.20;;;21.90;75.50;;;;;;5038706;28;20026;-89
2022/09/06 12:54:22;;;;;;;10.30;1.58;;;21.90;74.70;;;;;;5031059;28;20044;-89
2022/09/06 12:56:48;;;;;;;9.07;1.90;;;22.00;75.40;;;;;;5041489;28;20037;-90
2022/09/06 12:59:20;;;;;;;5.72;1.30;;;22.00;74.50;;;;;;5040956;28;20021;-90
2022/09/06 13:02:01;;;;;;;8.13;1.70;;;22.00;73.80;;;;;;5036660;28;20139;-90
2022/09/06 13:04:41;;;;;;;4.82;1.20;;;22.00;73.70;;;;;;5038701;28;20513;-89
2022/09/06 13:07:13;;;;;;;5.78;1.67;;;21.90;74.20;;;;;;5027747;28;20038;-89
2022/09/06 13:09:43;;;;;;;6.50;1.23;;;21.80;74.70;;;;;;5037693;28;20037;-91
2022/09/06 13:12:25;;;;;;;7.13;1.30;;;21.80;74.70;;;;;;5023794;28;20029;-90